Time;durP1;ratioP1;P1;durP2;ratioP2;P2;SDS_P1;SDS_P2;PMS_P1;PMS_P2;Temp;Humidity;BMP_temperature;BMP_pressure;BME280_temperature;BME280_humidity;BME280_pressure;Samples;Min_cycle;Max_cycle;Signal;HPM_P1;HPM_P2
2024/01/05 00:01:22;;;;;;;7.90;4.72;;;;;;;;;;5039870;28;20575;-78
2024/01/05 00:03:47;;;;;;;7.65;4.25;;;;;;;;;;5041382;28;20041;-79
2024/01/05 00:06:13;;;;;;;7.63;4.43;;;;;;;;;;5025772;28;20131;-80
2024/01/05 00:08:41;;;;;;;8.82;4.13;;;;;;;;;;5042028;28;20480;-78
2024/01/05 00:11:07;;;;;;;6.57;3.63;;;;;;;;;;5015083;28;20059;-78
2024/01/05 00:13:32;;;;;;;7.88;4.03;;;;;;;;;;4991592;28;20486;-80
2024/01/05 00:15:58;;;;;;;6.55;3.58;;;;;;;;;;5022614;28;20037;-80
2024/01/05 00:18:26;;;;;;;6.53;3.40;;;;;;;;;;5024009;28;20033;-78
2024/01/05 00:20:52;;;;;;;8.00;3.72;;;;;;;;;;5024232;28;20033;-77
2024/01/05 00:23:17;;;;;;;6.32;3.25;;;;;;;;;;5016170;28;20067;-78
2024/01/05 00:25:43;;;;;;;6.38;3.42;;;;;;;;;;5043167;28;20458;-81
2024/01/05 00:28:08;;;;;;;5.85;2.80;;;;;;;;;;5039970;28;20053;-79
2024/01/05 00:30:34;;;;;;;8.43;3.58;;;;;;;;;;5041338;28;20119;-79
2024/01/05 00:33:00;;;;;;;5.47;2.95;;;;;;;;;;5019348;28;20087;-79
2024/01/05 00:35:25;;;;;;;6.47;2.85;;;;;;;;;;5032276;28;20057;-79
2024/01/05 00:37:51;;;;;;;5.25;2.78;;;;;;;;;;5043866;28;20134;-80
2024/01/05 00:40:16;;;;;;;5.95;3.10;;;;;;;;;;5043885;28;20033;-80
2024/01/05 00:42:42;;;;;;;6.13;3.03;;;;;;;;;;5037263;28;20033;-80
2024/01/05 00:45:07;;;;;;;5.25;2.70;;;;;;;;;;5028685;28;20617;-79
2024/01/05 00:47:33;;;;;;;5.80;2.78;;;;;;;;;;5021913;28;20487;-79
2024/01/05 00:49:58;;;;;;;6.88;2.85;;;;;;;;;;5029045;28;20551;-79
2024/01/05 00:52:24;;;;;;;5.43;3.00;;;;;;;;;;5035402;28;20029;-77
2024/01/05 00:54:52;;;;;;;5.15;2.95;;;;;;;;;;5033159;28;20037;-79
2024/01/05 00:57:22;;;;;;;4.93;2.50;;;;;;;;;;5022496;28;20127;-78
2024/01/05 00:59:47;;;;;;;6.47;3.20;;;;;;;;;;5023791;28;21237;-79
2024/01/05 01:02:13;;;;;;;6.53;2.72;;;;;;;;;;5022849;28;20279;-79
2024/01/05 01:04:38;;;;;;;6.43;2.85;;;;;;;;;;4998659;28;20048;-79
2024/01/05 01:07:04;;;;;;;5.78;2.85;;;;;;;;;;5011724;28;20113;-80
2024/01/05 01:09:30;;;;;;;5.30;2.90;;;;;;;;;;4999692;28;20040;-79
2024/01/05 01:12:00;;;;;;;6.47;2.92;;;;;;;;;;5023021;28;20033;-79
2024/01/05 01:14:26;;;;;;;5.97;3.20;;;;;;;;;;5028965;28;20063;-80
2024/01/05 01:16:51;;;;;;;5.03;2.88;;;;;;;;;;5036027;28;20041;-78
2024/01/05 01:19:16;;;;;;;6.22;3.33;;;;;;;;;;5039483;28;20056;-78
2024/01/05 01:21:42;;;;;;;4.68;2.72;;;;;;;;;;5040182;28;20084;-78
2024/01/05 01:24:07;;;;;;;7.25;3.00;;;;;;;;;;5027364;28;20550;-80
2024/01/05 01:26:38;;;;;;;7.90;3.25;;;;;;;;;;5028569;28;20555;-79
2024/01/05 01:29:03;;;;;;;6.40;2.90;;;;;;;;;;5021638;28;20037;-79
2024/01/05 01:31:39;;;;;;;6.60;3.25;;;;;;;;;;5022637;28;20033;-78
2024/01/05 01:34:04;;;;;;;6.15;3.30;;;;;;;;;;5023981;28;20119;-77
2024/01/05 01:36:30;;;;;;;6.00;3.15;;;;;;;;;;5027990;28;20560;-79
2024/01/05 01:38:56;;;;;;;5.82;3.13;;;;;;;;;;5038684;28;20397;-78
2024/01/05 01:41:21;;;;;;;8.23;3.33;;;;;;;;;;5035703;28;20032;-77
2024/01/05 01:43:48;;;;;;;7.10;3.10;;;;;;;;;;5035866;28;20033;-78
2024/01/05 01:46:13;;;;;;;6.67;3.20;;;;;;;;;;5040765;28;20029;-77
2024/01/05 01:48:44;;;;;;;6.50;3.10;;;;;;;;;;5038414;28;20285;-79
2024/01/05 01:51:10;;;;;;;6.82;3.42;;;;;;;;;;5022400;28;20040;-79
2024/01/05 01:53:35;;;;;;;5.32;2.72;;;;;;;;;;5039090;28;20029;-80
2024/01/05 01:56:00;;;;;;;6.35;3.00;;;;;;;;;;5037619;28;20041;-78
2024/01/05 01:58:26;;;;;;;6.03;3.30;;;;;;;;;;5036314;28;20029;-77
2024/01/05 02:00:52;;;;;;;7.95;3.40;;;;;;;;;;5024730;28;20030;-80
2024/01/05 02:03:17;;;;;;;6.45;3.10;;;;;;;;;;5036996;28;20044;-77
2024/01/05 02:05:43;;;;;;;7.18;3.33;;;;;;;;;;5037440;28;20029;-78
2024/01/05 02:08:09;;;;;;;7.22;3.30;;;;;;;;;;5039114;28;20033;-78
2024/01/05 02:10:34;;;;;;;8.07;3.33;;;;;;;;;;5036338;28;20071;-79
2024/01/05 02:13:00;;;;;;;6.43;3.30;;;;;;;;;;5032918;28;20042;-79
2024/01/05 02:15:26;;;;;;;5.32;3.13;;;;;;;;;;5028859;28;20120;-79
2024/01/05 02:17:57;;;;;;;7.03;3.08;;;;;;;;;;5020254;28;20500;-79
2024/01/05 02:20:22;;;;;;;7.15;3.20;;;;;;;;;;5017722;28;20104;-78
2024/01/05 02:22:54;;;;;;;6.75;3.13;;;;;;;;;;5038950;28;20052;-77
2024/01/05 02:25:19;;;;;;;5.65;3.30;;;;;;;;;;5021919;28;20527;-79
2024/01/05 02:27:44;;;;;;;5.43;3.22;;;;;;;;;;5036712;28;20037;-78
2024/01/05 02:30:11;;;;;;;7.57;3.28;;;;;;;;;;5033932;28;20034;-77
2024/01/05 02:32:36;;;;;;;8.13;3.72;;;;;;;;;;5011518;28;20446;-78
2024/01/05 02:35:02;;;;;;;6.38;3.65;;;;;;;;;;5034172;28;20037;-79
2024/01/05 02:37:29;;;;;;;6.60;3.50;;;;;;;;;;5018440;28;20063;-78
2024/01/05 02:39:54;;;;;;;7.22;3.08;;;;;;;;;;5008527;28;20033;-79
2024/01/05 02:42:25;;;;;;;7.07;3.40;;;;;;;;;;5013177;28;20180;-78
2024/01/05 02:44:50;;;;;;;6.07;3.38;;;;;;;;;;5032701;28;20033;-77
2024/01/05 02:47:16;;;;;;;5.97;3.40;;;;;;;;;;5025574;28;20534;-78
2024/01/05 02:49:41;;;;;;;7.72;3.20;;;;;;;;;;5018285;28;20076;-77
2024/01/05 02:52:07;;;;;;;10.27;4.68;;;;;;;;;;5033957;28;20033;-79
2024/01/05 02:54:32;;;;;;;9.40;3.75;;;;;;;;;;5024788;28;20031;-79
2024/01/05 02:56:57;;;;;;;6.50;3.55;;;;;;;;;;5035006;28;20033;-78
2024/01/05 02:59:23;;;;;;;5.90;3.15;;;;;;;;;;5032682;28;20191;-78
2024/01/05 03:01:49;;;;;;;6.45;3.33;;;;;;;;;;5038076;28;20435;-78
2024/01/05 03:04:15;;;;;;;7.25;3.03;;;;;;;;;;5016524;28;20041;-77
2024/01/05 03:06:40;;;;;;;6.55;3.50;;;;;;;;;;5008190;28;20029;-79
2024/01/05 03:09:08;;;;;;;7.85;3.47;;;;;;;;;;5034219;28;20392;-79
2024/01/05 03:11:33;;;;;;;;;;;;;;;;;;5032859;28;20030;-80
2024/01/05 03:13:59;;;;;;;7.35;3.30;;;;;;;;;;5037554;28;20257;-78
2024/01/05 03:16:25;;;;;;;7.40;4.07;;;;;;;;;;5035444;28;20489;-78
2024/01/05 03:18:50;;;;;;;8.38;3.63;;;;;;;;;;5033333;28;20448;-78
2024/01/05 03:21:15;;;;;;;6.38;3.15;;;;;;;;;;5043052;28;20061;-79
2024/01/05 03:23:41;;;;;;;7.68;3.42;;;;;;;;;;5036334;28;20049;-77
2024/01/05 03:26:27;;;;;;;5.90;3.10;;;;;;;;;;5031020;28;20206;-78
2024/01/05 03:28:52;;;;;;;6.53;3.63;;;;;;;;;;5025660;28;20041;-78
2024/01/05 03:31:19;;;;;;;7.60;3.58;;;;;;;;;;4998737;28;20041;-80
2024/01/05 03:33:45;;;;;;;7.70;3.85;;;;;;;;;;5014608;28;20029;-79
2024/01/05 03:36:10;;;;;;;6.28;3.47;;;;;;;;;;5034868;28;20400;-79
2024/01/05 03:38:36;;;;;;;9.40;4.03;;;;;;;;;;5031218;28;20029;-79
2024/01/05 03:41:01;;;;;;;8.80;3.85;;;;;;;;;;5034508;28;20041;-79
2024/01/05 03:43:27;;;;;;;6.47;3.70;;;;;;;;;;5027117;28;20123;-78
2024/01/05 03:45:53;;;;;;;7.63;3.80;;;;;;;;;;5036189;28;20048;-78
2024/01/05 03:48:22;;;;;;;6.45;3.50;;;;;;;;;;5032253;28;20546;-79
2024/01/05 03:50:50;;;;;;;7.50;3.80;;;;;;;;;;5020546;28;20445;-77
2024/01/05 03:53:16;;;;;;;8.00;3.55;;;;;;;;;;5039515;28;20033;-78
2024/01/05 03:55:41;;;;;;;5.95;3.60;;;;;;;;;;5007653;28;20135;-79
2024/01/05 03:58:07;;;;;;;7.07;3.63;;;;;;;;;;5025471;28;20068;-79
2024/01/05 04:00:33;;;;;;;7.35;3.67;;;;;;;;;;5018615;28;20388;-78
2024/01/05 04:02:58;;;;;;;7.88;3.70;;;;;;;;;;5026531;28;20130;-79
2024/01/05 04:05:24;;;;;;;6.85;3.53;;;;;;;;;;5030361;28;20453;-78
2024/01/05 04:07:49;;;;;;;6.25;3.30;;;;;;;;;;5035907;28;20076;-76
2024/01/05 04:10:18;;;;;;;6.15;3.72;;;;;;;;;;5037634;28;20492;-78
2024/01/05 04:12:43;;;;;;;6.90;3.15;;;;;;;;;;5037395;28;20510;-78
2024/01/05 04:15:11;;;;;;;7.05;3.38;;;;;;;;;;5035409;28;20041;-78
2024/01/05 04:17:37;;;;;;;5.88;3.08;;;;;;;;;;5022193;28;20038;-78
2024/01/05 04:20:02;;;;;;;5.22;3.00;;;;;;;;;;5027467;28;20086;-78
2024/01/05 04:22:30;;;;;;;6.53;3.20;;;;;;;;;;5032672;28;20087;-79
2024/01/05 04:24:58;;;;;;;6.13;3.30;;;;;;;;;;5011152;28;20033;-78
2024/01/05 04:27:23;;;;;;;7.35;3.03;;;;;;;;;;5027905;28;20086;-77
2024/01/05 04:29:48;;;;;;;7.35;3.17;;;;;;;;;;5019072;28;20044;-78
2024/01/05 04:32:17;;;;;;;6.88;3.17;;;;;;;;;;5025868;28;20049;-78
2024/01/05 04:34:42;;;;;;;7.10;3.03;;;;;;;;;;5014269;28;20038;-77
2024/01/05 04:37:08;;;;;;;6.30;3.05;;;;;;;;;;5034880;28;20037;-77
2024/01/05 04:39:34;;;;;;;6.30;3.40;;;;;;;;;;5034413;28;20077;-77
2024/01/05 04:41:59;;;;;;;5.72;2.90;;;;;;;;;;5031880;28;20061;-79
2024/01/05 04:44:25;;;;;;;6.35;2.95;;;;;;;;;;5009063;28;20116;-79
2024/01/05 04:46:50;;;;;;;7.43;3.05;;;;;;;;;;5035738;28;20044;-77
2024/01/05 04:49:16;;;;;;;6.47;3.28;;;;;;;;;;5035664;28;20059;-76
2024/01/05 04:51:41;;;;;;;5.57;2.72;;;;;;;;;;5013065;28;20025;-77
2024/01/05 04:54:07;;;;;;;5.50;2.78;;;;;;;;;;5020901;28;20041;-76
2024/01/05 04:56:32;;;;;;;5.38;2.83;;;;;;;;;;5027729;28;20034;-77
2024/01/05 04:58:58;;;;;;;5.70;2.72;;;;;;;;;;5027245;28;20049;-77
2024/01/05 05:01:26;;;;;;;6.55;2.60;;;;;;;;;;5036551;28;20481;-78
2024/01/05 05:03:52;;;;;;;5.35;2.72;;;;;;;;;;5025251;28;20033;-77
2024/01/05 05:06:21;;;;;;;6.10;2.35;;;;;;;;;;5004518;28;20064;-79
2024/01/05 05:08:46;;;;;;;5.45;2.38;;;;;;;;;;5003506;28;20033;-78
2024/01/05 05:11:14;;;;;;;5.22;2.30;;;;;;;;;;5018972;28;20044;-78
2024/01/05 05:13:40;;;;;;;5.63;2.60;;;;;;;;;;5035941;28;20033;-81
2024/01/05 05:16:08;;;;;;;5.95;2.67;;;;;;;;;;5019122;28;20064;-79
2024/01/05 05:18:34;;;;;;;4.80;2.70;;;;;;;;;;5038276;28;20094;-78
2024/01/05 05:21:00;;;;;;;5.28;2.78;;;;;;;;;;5009313;28;20037;-79
2024/01/05 05:23:34;;;;;;;5.90;2.72;;;;;;;;;;5035097;28;20037;-77
2024/01/05 05:25:59;;;;;;;5.00;2.75;;;;;;;;;;5021645;28;20049;-79
2024/01/05 05:28:25;;;;;;;7.18;2.67;;;;;;;;;;5036092;28;20492;-79
2024/01/05 05:30:50;;;;;;;5.72;2.90;;;;;;;;;;5001580;28;20118;-80
2024/01/05 05:33:19;;;;;;;5.25;2.65;;;;;;;;;;5036025;28;20052;-79
2024/01/05 05:35:48;;;;;;;5.25;2.90;;;;;;;;;;5025089;28;20769;-78
2024/01/05 05:38:14;;;;;;;5.85;2.88;;;;;;;;;;5034885;28;20408;-79
2024/01/05 05:40:40;;;;;;;6.35;3.17;;;;;;;;;;5011313;28;20033;-79
2024/01/05 05:43:05;;;;;;;5.38;2.65;;;;;;;;;;5023283;28;20041;-79
2024/01/05 05:45:31;;;;;;;6.28;2.78;;;;;;;;;;5040806;28;20041;-80
2024/01/05 05:47:58;;;;;;;6.85;2.95;;;;;;;;;;5024673;28;20035;-79
2024/01/05 05:50:23;;;;;;;7.65;3.08;;;;;;;;;;5012072;28;20144;-79
2024/01/05 05:52:54;;;;;;;6.63;3.17;;;;;;;;;;5027591;28;20148;-78
2024/01/05 05:55:23;;;;;;;7.53;3.92;;;;;;;;;;5000600;28;20556;-78
2024/01/05 05:57:52;;;;;;;6.85;3.85;;;;;;;;;;5025458;28;20534;-76
2024/01/05 06:00:17;;;;;;;6.88;3.40;;;;;;;;;;5022377;28;20042;-75
2024/01/05 06:02:43;;;;;;;7.38;3.58;;;;;;;;;;4993585;28;20049;-75
2024/01/05 06:05:09;;;;;;;7.45;3.80;;;;;;;;;;5034417;28;20033;-76
2024/01/05 06:07:34;;;;;;;7.47;3.75;;;;;;;;;;5034141;28;20112;-75
2024/01/05 06:10:00;;;;;;;7.10;3.58;;;;;;;;;;5032514;28;20525;-77
2024/01/05 06:12:25;;;;;;;7.30;3.53;;;;;;;;;;5035630;28;20036;-76
2024/01/05 06:14:50;;;;;;;6.43;3.45;;;;;;;;;;5036201;28;20060;-77
2024/01/05 06:17:17;;;;;;;8.32;3.85;;;;;;;;;;5018614;28;20041;-75
2024/01/05 06:19:43;;;;;;;8.27;4.05;;;;;;;;;;5035546;28;20087;-74
2024/01/05 06:22:08;;;;;;;8.13;3.88;;;;;;;;;;5032384;28;20108;-75
2024/01/05 06:24:34;;;;;;;7.38;3.70;;;;;;;;;;5037319;28;20373;-77
2024/01/05 06:26:59;;;;;;;8.55;3.38;;;;;;;;;;5018487;28;20062;-77
2024/01/05 06:29:28;;;;;;;6.53;3.70;;;;;;;;;;5017823;28;20120;-77
2024/01/05 06:31:53;;;;;;;7.25;3.97;;;;;;;;;;5019743;28;20037;-76
2024/01/05 06:34:19;;;;;;;7.30;3.97;;;;;;;;;;5035831;28;20033;-76
2024/01/05 06:36:44;;;;;;;8.50;3.58;;;;;;;;;;5017512;28;20029;-76
2024/01/05 06:39:10;;;;;;;7.10;3.60;;;;;;;;;;5019373;28;20033;-78
2024/01/05 06:41:35;;;;;;;6.93;3.58;;;;;;;;;;5037739;28;20039;-76
2024/01/05 06:44:08;;;;;;;7.10;4.05;;;;;;;;;;5034783;28;20500;-80
2024/01/05 06:46:34;;;;;;;7.03;4.20;;;;;;;;;;5020773;28;20041;-79
2024/01/05 06:49:03;;;;;;;7.65;3.75;;;;;;;;;;5032572;28;20539;-80
2024/01/05 06:51:29;;;;;;;8.27;3.95;;;;;;;;;;5034173;28;20041;-79
2024/01/05 06:53:58;;;;;;;7.38;4.32;;;;;;;;;;5019681;28;20087;-78
2024/01/05 06:56:27;;;;;;;7.22;3.83;;;;;;;;;;5009417;28;20073;-80
2024/01/05 06:58:52;;;;;;;9.00;4.00;;;;;;;;;;5033859;28;20045;-79
2024/01/05 07:01:17;;;;;;;7.97;4.43;;;;;;;;;;5031755;28;20044;-79
2024/01/05 07:03:43;;;;;;;10.15;4.60;;;;;;;;;;5017118;28;20112;-78
2024/01/05 07:06:11;;;;;;;7.78;4.05;;;;;;;;;;5031654;28;20041;-79
2024/01/05 07:08:56;;;;;;;9.32;5.22;;;;;;;;;;5025133;28;20044;-78
2024/01/05 07:11:23;;;;;;;9.73;5.20;;;;;;;;;;4993126;28;20034;-78
2024/01/05 07:13:51;;;;;;;11.27;5.50;;;;;;;;;;4983906;28;20042;-77
2024/01/05 07:16:17;;;;;;;10.75;5.57;;;;;;;;;;4977414;28;20052;-77
2024/01/05 07:18:44;;;;;;;11.05;6.20;;;;;;;;;;4966932;28;20437;-78
2024/01/05 07:21:09;;;;;;;9.18;5.40;;;;;;;;;;4992500;28;20048;-78
2024/01/05 07:23:56;;;;;;;10.02;5.82;;;;;;;;;;4979850;28;20041;-79
2024/01/05 07:26:21;;;;;;;11.10;5.88;;;;;;;;;;4923440;29;20035;-79
2024/01/05 07:28:47;;;;;;;10.45;5.95;;;;;;;;;;4939416;29;20418;-79
2024/01/05 07:31:12;;;;;;;11.10;5.68;;;;;;;;;;4944598;29;20169;-78
2024/01/05 07:33:39;;;;;;;12.90;6.32;;;;;;;;;;4927094;29;20082;-79
2024/01/05 07:36:05;;;;;;;11.13;6.60;;;;;;;;;;4926358;29;20102;-79
2024/01/05 07:38:33;;;;;;;10.18;6.10;;;;;;;;;;4944608;28;20115;-77
2024/01/05 07:40:59;;;;;;;10.52;5.95;;;;;;;;;;4930149;28;20046;-81
2024/01/05 07:43:26;;;;;;;13.63;6.75;;;;;;;;;;4925217;28;20031;-78
2024/01/05 07:45:51;;;;;;;10.63;6.32;;;;;;;;;;4931701;29;20134;-79
2024/01/05 07:48:16;;;;;;;12.00;7.20;;;;;;;;;;4925521;28;20134;-80
2024/01/05 07:50:42;;;;;;;11.23;6.13;;;;;;;;;;4964160;28;20042;-79
2024/01/05 07:53:07;;;;;;;10.60;6.40;;;;;;;;;;4945591;28;20166;-79
2024/01/05 07:55:32;;;;;;;10.68;6.40;;;;;;;;;;4959455;28;20045;-79
2024/01/05 07:57:58;;;;;;;11.38;6.15;;;;;;;;;;4953356;28;20438;-81
2024/01/05 08:00:23;;;;;;;13.70;6.70;;;;;;;;;;4945283;28;21072;-81
2024/01/05 08:02:49;;;;;;;10.25;6.40;;;;;;;;;;4952577;28;20041;-79
2024/01/05 08:05:14;;;;;;;12.93;6.30;;;;;;;;;;5026308;28;20044;-79
2024/01/05 08:07:42;;;;;;;12.68;6.15;;;;;;;;;;5028987;28;20449;-81
2024/01/05 08:10:07;;;;;;;10.95;5.80;;;;;;;;;;5039518;28;20489;-78
2024/01/05 08:12:32;;;;;;;11.00;5.65;;;;;;;;;;5028029;28;20048;-80
2024/01/05 08:14:58;;;;;;;9.85;6.03;;;;;;;;;;5024386;28;20029;-82
2024/01/05 08:17:23;;;;;;;10.75;6.47;;;;;;;;;;5039428;28;20041;-82
2024/01/05 08:19:49;;;;;;;11.60;6.40;;;;;;;;;;5006107;28;20045;-79
2024/01/05 08:22:14;;;;;;;9.35;5.60;;;;;;;;;;5017058;28;20037;-81
2024/01/05 08:24:39;;;;;;;9.85;5.40;;;;;;;;;;5027791;28;20037;-78
2024/01/05 08:27:05;;;;;;;12.05;6.00;;;;;;;;;;5022280;28;20025;-78
2024/01/05 08:29:30;;;;;;;10.30;5.65;;;;;;;;;;5035572;28;20033;-80
2024/01/05 08:31:58;;;;;;;10.80;5.82;;;;;;;;;;5038023;28;20044;-80
2024/01/05 08:34:23;;;;;;;;;;;;;;;;;;5022265;28;20080;-78
2024/01/05 08:36:49;;;;;;;13.50;5.18;;;;;;;;;;5028376;28;20353;-80
2024/01/05 08:39:15;;;;;;;10.05;5.55;;;;;;;;;;5037590;28;20048;-81
2024/01/05 08:41:42;;;;;;;12.52;5.97;;;;;;;;;;5022986;28;20034;-78
2024/01/05 08:44:07;;;;;;;11.82;5.78;;;;;;;;;;5037081;28;20041;-79
2024/01/05 08:46:33;;;;;;;10.73;6.10;;;;;;;;;;5022402;28;20867;-79
2024/01/05 08:48:58;;;;;;;13.98;5.78;;;;;;;;;;5021945;28;20052;-81
2024/01/05 08:51:23;;;;;;;11.55;6.10;;;;;;;;;;5014709;28;20044;-79
2024/01/05 08:53:49;;;;;;;11.70;6.05;;;;;;;;;;5026730;28;20041;-78
2024/01/05 08:56:14;;;;;;;10.60;5.78;;;;;;;;;;5035896;28;20396;-78
2024/01/05 08:58:40;;;;;;;11.32;5.72;;;;;;;;;;5022986;28;20040;-78
2024/01/05 09:01:05;;;;;;;10.52;5.90;;;;;;;;;;5036573;28;20040;-79
2024/01/05 09:03:31;;;;;;;12.43;5.70;;;;;;;;;;5028618;28;20179;-81
2024/01/05 09:05:56;;;;;;;13.32;5.93;;;;;;;;;;5028352;28;20068;-81
2024/01/05 09:08:22;;;;;;;10.13;5.85;;;;;;;;;;5036497;28;20119;-77
2024/01/05 09:10:47;;;;;;;10.10;5.65;;;;;;;;;;5036202;28;20025;-81
2024/01/05 09:13:13;;;;;;;9.23;5.57;;;;;;;;;;5043580;28;20041;-79
2024/01/05 09:15:38;;;;;;;12.48;5.47;;;;;;;;;;5036887;28;20033;-80
2024/01/05 09:18:05;;;;;;;10.25;5.40;;;;;;;;;;5007358;28;20094;-80
2024/01/05 09:20:30;;;;;;;11.87;5.97;;;;;;;;;;5035153;28;20155;-79
2024/01/05 09:22:55;;;;;;;9.85;5.53;;;;;;;;;;5036810;28;20175;-80
2024/01/05 09:25:22;;;;;;;10.02;5.43;;;;;;;;;;5023420;28;20076;-78
2024/01/05 09:27:47;;;;;;;9.02;5.10;;;;;;;;;;5035463;28;20064;-81
2024/01/05 09:30:13;;;;;;;10.07;4.68;;;;;;;;;;5044050;28;20512;-81
2024/01/05 09:32:38;;;;;;;9.38;5.00;;;;;;;;;;5038550;28;20496;-78
2024/01/05 09:35:05;;;;;;;10.27;4.80;;;;;;;;;;5035654;28;20418;-81
2024/01/05 09:37:30;;;;;;;9.43;5.40;;;;;;;;;;5031654;28;20459;-80
2024/01/05 09:39:55;;;;;;;7.80;4.60;;;;;;;;;;5021651;28;20107;-81
2024/01/05 09:42:22;;;;;;;8.05;4.78;;;;;;;;;;5014733;28;20041;-79
2024/01/05 09:44:48;;;;;;;8.50;4.93;;;;;;;;;;5023274;28;20032;-78
2024/01/05 09:47:20;;;;;;;8.65;4.72;;;;;;;;;;5022903;28;20037;-79
2024/01/05 09:49:49;;;;;;;8.13;4.57;;;;;;;;;;5028473;28;20033;-80
2024/01/05 09:52:15;;;;;;;8.32;4.68;;;;;;;;;;5034341;28;20143;-79
2024/01/05 09:54:40;;;;;;;8.02;5.07;;;;;;;;;;5039504;28;20396;-80
2024/01/05 09:57:08;;;;;;;9.20;4.95;;;;;;;;;;5036556;28;20404;-78
2024/01/05 09:59:38;;;;;;;7.95;4.55;;;;;;;;;;5011984;28;20040;-77
2024/01/05 10:02:04;;;;;;;7.93;4.60;;;;;;;;;;5000401;28;20056;-78
2024/01/05 10:04:33;;;;;;;8.93;5.15;;;;;;;;;;5022537;28;20049;-80
2024/01/05 10:07:02;;;;;;;7.35;4.32;;;;;;;;;;5003138;28;20088;-80
2024/01/05 10:09:32;;;;;;;9.48;4.80;;;;;;;;;;5009329;28;20045;-76
2024/01/05 10:12:11;;;;;;;9.73;5.00;;;;;;;;;;5019669;28;20111;-77
2024/01/05 10:14:36;;;;;;;7.90;4.90;;;;;;;;;;5030800;28;20090;-78
2024/01/05 10:17:11;;;;;;;9.25;4.82;;;;;;;;;;5037124;28;20037;-77
2024/01/05 10:19:37;;;;;;;10.15;4.65;;;;;;;;;;5021084;28;20045;-78
2024/01/05 10:22:10;;;;;;;7.38;4.43;;;;;;;;;;5033437;28;20056;-78
2024/01/05 10:24:38;;;;;;;7.40;4.40;;;;;;;;;;5031444;28;20037;-80
2024/01/05 10:27:08;;;;;;;7.63;4.47;;;;;;;;;;5033426;28;20569;-80
2024/01/05 10:29:36;;;;;;;8.77;4.75;;;;;;;;;;5020592;28;20063;-78
2024/01/05 10:32:39;;;;;;;7.70;4.45;;;;;;;;;;5024803;28;20037;-77
2024/01/05 10:35:08;;;;;;;7.72;4.47;;;;;;;;;;5021120;28;20079;-77
2024/01/05 10:37:33;;;;;;;8.25;4.75;;;;;;;;;;5038432;28;20029;-78
2024/01/05 10:40:04;;;;;;;8.15;5.00;;;;;;;;;;5017931;28;20469;-80
2024/01/05 10:42:29;;;;;;;9.23;5.20;;;;;;;;;;5019241;28;20039;-79
2024/01/05 10:45:02;;;;;;;8.90;4.95;;;;;;;;;;5044523;28;20140;-78
2024/01/05 10:47:31;;;;;;;7.88;4.65;;;;;;;;;;5022769;28;20037;-78
2024/01/05 10:49:57;;;;;;;7.63;4.80;;;;;;;;;;5035465;28;20041;-79
2024/01/05 10:52:27;;;;;;;8.77;5.10;;;;;;;;;;5032031;28;20048;-78
2024/01/05 10:54:53;;;;;;;8.82;5.13;;;;;;;;;;5007318;28;20131;-78
2024/01/05 10:57:23;;;;;;;8.68;5.38;;;;;;;;;;5037968;28;20041;-78
2024/01/05 10:59:50;;;;;;;8.73;5.10;;;;;;;;;;5026378;28;20536;-79
2024/01/05 11:02:25;;;;;;;10.15;4.80;;;;;;;;;;5032522;28;20033;-80
2024/01/05 11:05:07;;;;;;;7.78;4.72;;;;;;;;;;5050629;28;20501;-78
2024/01/05 11:07:33;;;;;;;10.30;5.38;;;;;;;;;;5033233;28;20144;-81
2024/01/05 11:10:37;;;;;;;8.02;4.75;;;;;;;;;;5040679;28;20064;-78
2024/01/05 11:13:05;;;;;;;7.78;4.50;;;;;;;;;;5033555;28;20034;-78
2024/01/05 11:15:55;;;;;;;7.60;4.50;;;;;;;;;;5022596;28;20401;-80
2024/01/05 11:18:20;;;;;;;7.75;4.65;;;;;;;;;;5037304;28;20033;-79
2024/01/05 11:21:08;;;;;;;7.20;4.57;;;;;;;;;;5013813;28;20031;-80
2024/01/05 11:23:34;;;;;;;8.10;4.85;;;;;;;;;;5036823;28;20033;-79
2024/01/05 11:26:00;;;;;;;7.32;4.55;;;;;;;;;;5030691;28;20461;-81
2024/01/05 11:28:36;;;;;;;7.88;4.68;;;;;;;;;;5015293;28;20061;-77
2024/01/05 11:31:02;;;;;;;8.02;5.00;;;;;;;;;;5034217;28;20033;-80
2024/01/05 11:33:44;;;;;;;7.93;4.65;;;;;;;;;;5031649;28;20039;-82
2024/01/05 11:36:10;;;;;;;8.27;4.53;;;;;;;;;;5011882;28;20033;-77
2024/01/05 11:38:44;;;;;;;7.93;4.72;;;;;;;;;;5020176;28;20526;-77
2024/01/05 11:41:17;;;;;;;6.78;4.32;;;;;;;;;;5023783;28;20041;-79
2024/01/05 11:43:43;;;;;;;6.07;4.00;;;;;;;;;;5009822;28;20136;-79
2024/01/05 11:46:08;;;;;;;7.28;4.28;;;;;;;;;;5034993;28;20180;-77
2024/01/05 11:48:33;;;;;;;6.50;4.25;;;;;;;;;;5019890;28;20061;-80
2024/01/05 11:51:08;;;;;;;7.43;4.53;;;;;;;;;;5027943;28;20041;-78
2024/01/05 11:53:34;;;;;;;7.47;4.53;;;;;;;;;;5034733;28;20535;-79
2024/01/05 11:56:07;;;;;;;6.78;4.32;;;;;;;;;;5021950;28;20033;-78
2024/01/05 11:58:36;;;;;;;10.35;4.75;;;;;;;;;;5024972;28;20042;-78
2024/01/05 12:01:04;;;;;;;10.15;5.07;;;;;;;;;;5031957;28;20492;-78
2024/01/05 12:03:30;;;;;;;9.18;4.78;;;;;;;;;;5042144;28;20112;-79
2024/01/05 12:05:59;;;;;;;8.73;4.93;;;;;;;;;;5009372;28;20149;-79
2024/01/05 12:08:25;;;;;;;7.10;4.60;;;;;;;;;;5012202;28;20041;-80
2024/01/05 12:11:02;;;;;;;7.50;4.90;;;;;;;;;;5013954;28;20033;-79
2024/01/05 12:13:39;;;;;;;8.75;4.90;;;;;;;;;;5029421;28;20148;-78
2024/01/05 12:16:10;;;;;;;7.78;4.63;;;;;;;;;;5029536;28;20108;-79
2024/01/05 12:19:02;;;;;;;9.27;5.22;;;;;;;;;;5040253;28;20041;-80
2024/01/05 12:21:28;;;;;;;7.75;4.80;;;;;;;;;;5017621;28;20033;-79
2024/01/05 12:23:56;;;;;;;8.35;4.78;;;;;;;;;;5028269;28;20143;-80
2024/01/05 12:26:22;;;;;;;8.98;5.15;;;;;;;;;;5019254;28;20440;-78
2024/01/05 12:28:53;;;;;;;9.38;5.43;;;;;;;;;;5032911;28;20037;-79
2024/01/05 12:31:19;;;;;;;9.73;5.53;;;;;;;;;;5029673;28;20042;-79
2024/01/05 12:33:45;;;;;;;9.50;5.50;;;;;;;;;;5037059;28;20060;-81
2024/01/05 12:36:22;;;;;;;9.27;5.80;;;;;;;;;;5024299;28;20075;-80
2024/01/05 12:39:14;;;;;;;11.35;5.78;;;;;;;;;;5039588;28;20496;-81
2024/01/05 12:41:42;;;;;;;8.30;5.80;;;;;;;;;;5035437;28;20132;-80
2024/01/05 12:44:09;;;;;;;11.93;6.07;;;;;;;;;;5037108;28;20034;-79
2024/01/05 12:46:46;;;;;;;9.32;6.10;;;;;;;;;;5019311;28;20030;-78
2024/01/05 12:49:23;;;;;;;9.55;6.00;;;;;;;;;;5033309;28;20045;-78
2024/01/05 12:51:49;;;;;;;;;;;;;;;;;;5012315;28;20045;-78
2024/01/05 12:54:14;;;;;;;10.85;5.95;;;;;;;;;;5021079;28;19920;-78
2024/01/05 12:56:44;;;;;;;9.48;5.75;;;;;;;;;;5035767;28;20060;-79
2024/01/05 12:59:18;;;;;;;10.25;5.63;;;;;;;;;;5021792;28;20049;-79
2024/01/05 13:01:46;;;;;;;10.60;6.30;;;;;;;;;;5038105;28;20500;-79
2024/01/05 13:04:27;;;;;;;11.35;5.82;;;;;;;;;;5012111;28;20047;-76
2024/01/05 13:06:52;;;;;;;11.02;6.57;;;;;;;;;;4996807;28;20685;-79
2024/01/05 13:09:17;;;;;;;9.73;5.78;;;;;;;;;;5032166;28;20167;-79
2024/01/05 13:11:52;;;;;;;9.73;6.30;;;;;;;;;;5011390;28;20391;-78
2024/01/05 13:14:18;;;;;;;9.80;6.50;;;;;;;;;;5013110;28;20045;-78
2024/01/05 13:16:45;;;;;;;9.90;5.88;;;;;;;;;;5017922;28;20044;-77
2024/01/05 13:19:10;;;;;;;10.85;6.45;;;;;;;;;;5026249;28;20124;-78
2024/01/05 13:21:40;;;;;;;8.70;6.07;;;;;;;;;;5018787;28;20199;-79
2024/01/05 13:24:06;;;;;;;11.40;6.10;;;;;;;;;;5004970;28;20033;-78
2024/01/05 13:26:34;;;;;;;13.13;6.70;;;;;;;;;;5021989;28;20029;-78
2024/01/05 13:29:00;;;;;;;9.95;6.15;;;;;;;;;;5012719;28;20763;-76
2024/01/05 13:31:25;;;;;;;11.40;6.93;;;;;;;;;;5035621;28;20049;-78
2024/01/05 13:33:51;;;;;;;10.55;6.32;;;;;;;;;;5034661;28;20045;-78
2024/01/05 13:36:16;;;;;;;10.73;6.18;;;;;;;;;;5034225;28;20041;-78
2024/01/05 13:38:42;;;;;;;8.57;5.53;;;;;;;;;;5018990;28;20041;-78
2024/01/05 13:41:07;;;;;;;11.23;6.18;;;;;;;;;;5017399;28;20037;-77
2024/01/05 13:43:34;;;;;;;10.45;6.20;;;;;;;;;;5026518;28;20026;-78
2024/01/05 13:46:00;;;;;;;10.77;6.38;;;;;;;;;;5025105;28;20029;-77
2024/01/05 13:48:26;;;;;;;9.40;5.68;;;;;;;;;;5011680;28;20355;-80
2024/01/05 13:50:51;;;;;;;11.25;6.65;;;;;;;;;;5011130;28;20035;-81
2024/01/05 13:53:17;;;;;;;11.30;6.75;;;;;;;;;;4994004;28;20747;-78
2024/01/05 13:55:43;;;;;;;10.80;6.70;;;;;;;;;;5009138;28;20041;-80
2024/01/05 13:58:11;;;;;;;10.35;6.28;;;;;;;;;;5022566;28;20063;-79
2024/01/05 14:00:38;;;;;;;11.02;6.55;;;;;;;;;;5011332;28;20063;-82
2024/01/05 14:03:04;;;;;;;11.13;6.28;;;;;;;;;;5018756;28;20116;-80
2024/01/05 14:05:29;;;;;;;11.38;6.63;;;;;;;;;;5019457;28;20631;-80
2024/01/05 14:07:55;;;;;;;11.25;6.85;;;;;;;;;;5023279;28;20029;-80
2024/01/05 14:10:21;;;;;;;13.13;7.55;;;;;;;;;;5022800;28;20041;-78
2024/01/05 14:12:46;;;;;;;11.90;7.05;;;;;;;;;;5026220;28;20033;-78
2024/01/05 14:15:13;;;;;;;11.38;7.18;;;;;;;;;;5027067;28;20765;-81
2024/01/05 14:17:38;;;;;;;11.98;7.38;;;;;;;;;;5020656;28;20033;-79
2024/01/05 14:20:06;;;;;;;13.38;7.38;;;;;;;;;;5034387;28;20044;-78
2024/01/05 14:22:31;;;;;;;10.63;6.82;;;;;;;;;;5035202;28;20029;-80
2024/01/05 14:24:57;;;;;;;11.18;7.28;;;;;;;;;;5036129;28;20137;-82
2024/01/05 14:27:23;;;;;;;11.07;6.70;;;;;;;;;;5020467;28;20036;-79
2024/01/05 14:29:48;;;;;;;11.90;7.68;;;;;;;;;;5019913;28;20404;-77
2024/01/05 14:32:14;;;;;;;13.13;8.05;;;;;;;;;;5033385;28;20037;-78
2024/01/05 14:34:42;;;;;;;12.95;7.72;;;;;;;;;;5009457;28;20033;-79
2024/01/05 14:37:07;;;;;;;11.90;7.57;;;;;;;;;;5017322;28;20037;-79
2024/01/05 14:39:32;;;;;;;13.18;7.25;;;;;;;;;;5025412;28;20052;-78
2024/01/05 14:41:58;;;;;;;11.43;7.63;;;;;;;;;;5006659;28;20033;-79